Inicio METAR Ruta Wind Satelite

Informe Meteorológico

Fecha: 2020/09/22 23:00:50 Local
2020.09.23 04:00 UTC


Estado: VENCIDO
Operación:VFR
Medellin / Olaya Herrera, Colombia (SKMD) 06-13N 075-36W 1499M
2020.09.22 2300 UTC
Wind: from the NNE (030 degrees) at 9 MPH (8 KT):0
Visibility: greater than 7 mile(s):0
Sky conditions: partly cloudy
Temperature: 80 F (27 C)
Dew Point: 46 F (8 C)
Relative Humidity: 30%
Pressure (altimeter): 30.02 in. Hg (1016 hPa)
ob: SKMD 222300Z 03008KT 9999 FEW035 SCT200 27/08 A3002
cycle: 23

SKMD 222200Z 09010KT 9999 FEW035 SCT200 28/08 A2999
SKMD 222100Z 09010KT 9999 FEW035 SCT200 30/08 A2998
SKMD 222000Z 10010KT 9999 FEW035 SCT200 30/12 A2999
SKMD 221900Z 01006KT 9999 FEW035 SCT200 29/14 A3000
SKMD 221800Z VRB02KT 9999 FEW035 SCT200 29/16 A3003